createdAt,value
2023-04-15T00:00:10.302Z,13.13
2023-04-15T00:05:08.923Z,15.15
2023-04-15T00:07:36.432Z,5.35
2023-04-15T00:12:39.455Z,7.40
2023-04-15T00:15:08.133Z,9.77
2023-04-15T00:17:35.323Z,8.18
2023-04-15T00:20:02.917Z,10.43
2023-04-15T00:22:29.996Z,11.20
2023-04-15T00:25:04.782Z,7.97
2023-04-15T00:27:31.812Z,6.03
2023-04-15T00:29:58.777Z,8.90
2023-04-15T00:32:25.779Z,7.15
2023-04-15T00:34:52.836Z,11.23
2023-04-15T00:40:05.073Z,15.10
2023-04-15T00:42:32.255Z,10.63
2023-04-15T00:44:59.329Z,9.43
2023-04-15T00:47:27.683Z,10.18
2023-04-15T00:49:54.684Z,12.25
2023-04-15T00:52:22.010Z,9.85
2023-04-15T00:57:29.608Z,11.23
2023-04-15T00:59:57.217Z,10.82
2023-04-15T01:25:15.032Z,7.28
2023-04-15T01:27:42.641Z,10.27
2023-04-15T01:30:10.542Z,6.72
2023-04-15T01:32:37.900Z,12.70
2023-04-15T01:35:05.070Z,6.55
2023-04-15T01:37:32.427Z,5.63
2023-04-15T01:39:59.685Z,14.10
2023-04-15T01:42:27.507Z,12.48
2023-04-15T01:44:54.763Z,11.13
2023-04-15T01:47:22.601Z,13.82
2023-04-15T01:49:49.745Z,11.85
2023-04-15T01:52:16.745Z,10.32
2023-04-15T01:54:43.795Z,8.02
2023-04-15T01:57:10.834Z,14.18
2023-04-15T01:59:38.352Z,9.32
2023-04-15T02:02:05.557Z,9.30
2023-04-15T02:07:18.442Z,9.27
2023-04-15T02:09:46.051Z,8.98
2023-04-15T02:12:13.379Z,8.73
2023-04-15T02:14:40.562Z,9.73
2023-04-15T02:22:18.702Z,22.88
2023-04-15T02:30:13.636Z,8.63
2023-04-15T02:32:43.737Z,9.50
2023-04-15T02:35:11.269Z,11.93
2023-04-15T02:37:43.534Z,5.88
2023-04-15T02:40:12.104Z,9.95
2023-04-15T02:42:39.076Z,7.10
2023-04-15T02:45:07.269Z,9.77
2023-04-15T02:47:34.987Z,11.25
2023-04-15T02:52:42.336Z,12.65
2023-04-15T02:57:49.793Z,7.80
2023-04-15T03:03:03.391Z,6.63
2023-04-15T03:05:30.939Z,7.18
2023-04-15T03:07:58.023Z,7.22
2023-04-15T03:10:25.484Z,6.38
2023-04-15T03:12:53.983Z,10.13
2023-04-15T03:17:57.856Z,8.13
2023-04-15T03:20:24.991Z,11.20
2023-04-15T03:22:52.100Z,7.05
2023-04-15T03:25:19.129Z,7.78
2023-04-15T03:27:46.274Z,12.18
2023-04-15T03:35:52.867Z,9.13
2023-04-15T03:38:20.009Z,7.53
2023-04-15T03:40:47.663Z,5.65
2023-04-15T03:43:14.738Z,8.45
2023-04-15T03:45:41.845Z,6.78
2023-04-15T03:50:49.974Z,9.68
2023-04-15T03:53:17.046Z,7.72
2023-04-15T03:55:44.847Z,9.75
2023-04-15T03:58:12.927Z,9.52
2023-04-15T04:00:41.498Z,5.70
2023-04-15T04:05:47.902Z,8.65
2023-04-15T04:08:16.217Z,11.98
2023-04-15T04:10:43.435Z,7.43
2023-04-15T04:13:10.530Z,5.40
2023-04-15T04:15:37.770Z,6.72
2023-04-15T04:20:45.018Z,5.43
2023-04-15T04:23:12.205Z,10.77
2023-04-15T04:25:39.261Z,9.98
2023-04-15T04:28:06.277Z,7.88
2023-04-15T04:35:48.971Z,5.47
2023-04-15T04:38:16.072Z,9.30
2023-04-15T04:40:43.147Z,9.02
2023-04-15T04:48:47.141Z,10.55
2023-04-15T04:51:14.299Z,12.32
2023-04-15T04:53:41.375Z,12.70
2023-04-15T04:56:08.468Z,10.35
2023-04-15T04:58:35.481Z,12.75
2023-04-15T05:01:03.008Z,11.65
2023-04-15T05:03:30.281Z,11.30
2023-04-15T05:11:34.175Z,12.40
2023-04-15T05:14:02.198Z,7.32
2023-04-15T05:16:29.443Z,9.82
2023-04-15T05:18:56.684Z,10.40
2023-04-15T05:21:24.041Z,11.27
2023-04-15T05:24:03.754Z,12.60
2023-04-15T05:26:31.492Z,12.40
2023-04-15T05:28:58.753Z,10.48
2023-04-15T05:31:26.012Z,12.27
2023-04-15T05:33:53.109Z,10.00
2023-04-15T05:36:20.164Z,9.30
2023-04-15T05:41:39.420Z,8.77
2023-04-15T05:44:06.633Z,9.38
2023-04-15T05:46:33.714Z,14.35
2023-04-15T05:49:01.236Z,8.32
2023-04-15T05:51:28.469Z,10.20
2023-04-15T05:56:27.156Z,9.48
2023-04-15T05:58:54.295Z,7.53
2023-04-15T06:01:22.087Z,9.00
2023-04-15T06:03:49.301Z,6.97
2023-04-15T06:06:16.452Z,11.13
2023-04-15T06:08:43.548Z,10.73
2023-04-15T06:11:10.790Z,7.18
2023-04-15T06:13:37.858Z,9.73
2023-04-15T06:16:05.132Z,8.40
2023-04-15T06:18:32.182Z,7.80
2023-04-15T06:20:59.234Z,8.48
2023-04-15T06:23:27.011Z,9.30
2023-04-15T06:25:55.039Z,9.73
2023-04-15T06:28:22.110Z,7.03
2023-04-15T06:30:49.204Z,7.38
2023-04-15T06:33:16.506Z,8.30
2023-04-15T06:35:43.472Z,11.65
2023-04-15T06:38:10.641Z,9.82
2023-04-15T06:40:39.744Z,9.13
2023-04-15T06:43:07.950Z,12.02
2023-04-15T06:45:35.649Z,13.73
2023-04-15T07:04:35.113Z,14.68
2023-04-15T07:13:10.338Z,13.50
2023-04-15T07:15:37.427Z,12.10
2023-04-15T07:18:04.523Z,9.60
2023-04-15T07:23:04.885Z,9.88
2023-04-15T07:25:31.927Z,14.35
2023-04-15T07:27:58.975Z,11.60
2023-04-15T07:30:26.131Z,10.38
2023-04-15T07:32:53.279Z,12.93
2023-04-15T07:38:02.774Z,14.93
2023-04-15T07:40:29.829Z,13.45
2023-04-15T07:42:58.425Z,11.95
2023-04-15T07:57:30.928Z,9.57
2023-04-15T07:59:57.985Z,14.27
2023-04-15T08:02:31.802Z,13.98
2023-04-15T08:04:59.743Z,14.25
2023-04-15T08:13:21.796Z,13.02
2023-04-15T08:16:08.849Z,13.65
2023-04-15T08:18:35.930Z,14.73
2023-04-15T08:21:02.999Z,13.55
2023-04-15T08:26:00.513Z,15.90
2023-04-15T08:28:27.853Z,11.13
2023-04-15T08:30:54.942Z,11.57
2023-04-15T08:36:06.476Z,14.13
2023-04-15T08:38:33.604Z,12.57
2023-04-15T08:49:30.644Z,11.02
2023-04-15T08:51:59.502Z,12.18
2023-04-15T08:54:27.178Z,14.00
2023-04-15T08:56:54.601Z,10.77
2023-04-15T08:59:24.878Z,10.75
2023-04-15T09:01:52.386Z,11.23
2023-04-15T09:04:19.659Z,11.82
2023-04-15T09:06:47.666Z,15.98
2023-04-15T09:45:38.812Z,5.38
2023-04-15T09:56:40.897Z,2.47
2023-04-15T10:13:06.702Z,3.92
2023-04-15T10:18:29.310Z,4.00
2023-04-15T10:20:56.532Z,2.47
2023-04-15T10:34:22.339Z,3.78
2023-04-15T11:16:07.707Z,3.70
2023-04-15T11:32:36.811Z,4.45
2023-04-15T13:49:37.480Z,4.78
2023-04-15T14:47:03.294Z,12.45
2023-04-15T16:07:03.568Z,16.75
2023-04-15T16:20:35.729Z,21.42
2023-04-15T16:25:58.167Z,18.10
2023-04-15T16:33:56.038Z,21.13
2023-04-15T16:36:30.551Z,17.40
2023-04-15T16:58:02.517Z,13.68
2023-04-15T17:32:58.729Z,21.23
2023-04-15T17:35:28.452Z,20.33
2023-04-15T17:43:22.570Z,18.90
2023-04-15T17:45:52.808Z,23.13
2023-04-15T17:48:23.510Z,15.32
2023-04-15T18:20:26.253Z,12.77
2023-04-15T18:22:53.360Z,12.02
2023-04-15T18:25:20.356Z,13.95
2023-04-15T18:30:35.591Z,12.95
2023-04-15T18:41:07.695Z,11.13
2023-04-15T18:43:36.572Z,8.85
2023-04-15T18:46:08.384Z,14.02
2023-04-15T18:48:35.561Z,9.13
2023-04-15T18:53:35.565Z,10.93
2023-04-15T18:56:03.304Z,10.05
2023-04-15T19:04:01.599Z,13.73
2023-04-15T19:19:57.920Z,22.10
2023-04-15T19:22:24.976Z,19.20
2023-04-15T19:24:52.347Z,20.60
2023-04-15T19:27:19.493Z,27.63
2023-04-15T19:35:26.080Z,30.95
2023-04-15T19:37:53.260Z,28.63
2023-04-15T19:40:20.413Z,25.38
2023-04-15T19:42:47.641Z,22.60
2023-04-15T19:45:14.693Z,28.40
2023-04-15T19:50:26.226Z,23.08
2023-04-15T19:52:53.501Z,27.70
2023-04-15T19:55:20.897Z,27.27
2023-04-15T20:19:21.024Z,25.35
2023-04-15T20:21:48.754Z,24.42
2023-04-15T20:32:20.347Z,19.95
2023-04-15T20:34:47.776Z,21.17
2023-04-15T20:37:14.784Z,19.70
2023-04-15T20:39:42.011Z,26.17
2023-04-15T20:42:10.280Z,28.52
2023-04-15T20:44:44.697Z,25.23
2023-04-15T20:47:11.826Z,29.60
2023-04-15T20:49:39.532Z,28.58
2023-04-15T20:52:07.085Z,32.33
2023-04-15T20:54:34.439Z,29.17
2023-04-15T20:57:01.759Z,26.83
2023-04-15T20:59:40.631Z,25.92
2023-04-15T21:02:07.847Z,32.45
2023-04-15T21:04:34.962Z,28.20
2023-04-15T21:07:02.067Z,26.60
2023-04-15T21:09:29.150Z,29.40
2023-04-15T21:12:01.463Z,27.30
2023-04-15T21:14:29.279Z,26.00
2023-04-15T21:16:58.141Z,25.45
2023-04-15T21:19:25.284Z,30.83
2023-04-15T21:21:52.912Z,32.35
2023-04-15T21:24:19.908Z,27.42
2023-04-15T21:26:46.931Z,25.35
2023-04-15T21:29:14.137Z,26.52
2023-04-15T21:31:41.385Z,33.63
2023-04-15T21:34:08.429Z,30.05
2023-04-15T21:36:35.505Z,30.13
2023-04-15T21:39:02.618Z,25.20
2023-04-15T21:41:29.698Z,35.70
2023-04-15T21:43:56.750Z,39.83
2023-04-15T21:46:25.769Z,35.83
2023-04-15T21:49:00.278Z,33.58
2023-04-15T21:51:27.695Z,30.77
2023-04-15T21:53:54.880Z,36.17
2023-04-15T21:58:55.120Z,30.92
2023-04-15T22:01:22.125Z,36.05
2023-04-15T22:09:18.939Z,36.50
2023-04-15T22:11:47.181Z,37.65
2023-04-15T22:14:24.668Z,31.88
2023-04-15T22:16:51.681Z,30.98
2023-04-15T22:19:18.995Z,26.98
2023-04-15T22:21:46.105Z,27.58
2023-04-15T22:24:38.090Z,26.55
2023-04-15T22:29:50.933Z,30.58
2023-04-15T22:32:20.073Z,23.45
2023-04-15T22:34:52.399Z,28.83
2023-04-15T22:37:27.596Z,30.20
2023-04-15T22:39:56.481Z,33.28
2023-04-15T22:45:05.798Z,42.53
2023-04-15T22:50:17.036Z,26.55
2023-04-15T22:52:49.242Z,32.95
2023-04-15T23:06:02.963Z,28.95
2023-04-15T23:08:31.723Z,36.42
2023-04-15T23:13:44.528Z,37.72
2023-04-15T23:16:12.011Z,27.65
2023-04-15T23:18:44.896Z,28.48
2023-04-15T23:21:13.449Z,36.88
2023-04-15T23:23:44.998Z,30.50
2023-04-15T23:26:12.344Z,30.73
2023-04-15T23:28:43.346Z,30.55
2023-04-15T23:31:17.636Z,40.28
2023-04-15T23:47:16.426Z,49.20
2023-04-15T23:52:26.338Z,51.10
2023-04-15T23:57:41.184Z,43.22
